createdAt,value
2023-05-19T00:02:34.540Z,9.60
2023-05-19T00:05:20.826Z,9.63
2023-05-19T00:08:05.853Z,10.87
2023-05-19T00:10:50.233Z,9.57
2023-05-19T00:13:34.732Z,9.33
2023-05-19T00:16:19.236Z,9.63
2023-05-19T00:19:04.724Z,10.53
2023-05-19T00:21:50.010Z,9.53
2023-05-19T00:24:34.318Z,11.13
2023-05-19T00:27:18.144Z,10.07
2023-05-19T00:30:02.099Z,8.97
2023-05-19T00:32:48.322Z,8.70
2023-05-19T00:35:32.197Z,10.23
2023-05-19T00:38:17.522Z,7.97
2023-05-19T00:41:01.688Z,8.20
2023-05-19T00:43:45.735Z,7.77
2023-05-19T00:46:30.480Z,7.97
2023-05-19T00:49:14.365Z,8.63
2023-05-19T00:51:59.097Z,9.70
2023-05-19T00:54:45.662Z,9.40
2023-05-19T00:57:30.130Z,9.27
2023-05-19T01:00:15.367Z,10.23
2023-05-19T01:02:59.555Z,8.93
2023-05-19T01:05:44.937Z,9.80
2023-05-19T01:08:31.742Z,10.27
2023-05-19T01:11:17.252Z,9.33
2023-05-19T01:14:01.172Z,9.50
2023-05-19T01:16:50.459Z,10.10
2023-05-19T01:19:51.967Z,9.10
2023-05-19T01:22:56.656Z,10.27
2023-05-19T01:26:20.192Z,10.80
2023-05-19T01:29:29.384Z,10.87
2023-05-19T01:32:20.828Z,10.63
2023-05-19T01:35:06.795Z,10.77
2023-05-19T01:37:52.769Z,11.60
2023-05-19T01:40:38.427Z,11.53
2023-05-19T01:43:25.156Z,12.97
2023-05-19T01:46:10.385Z,12.80
2023-05-19T01:48:56.321Z,11.00
2023-05-19T01:51:40.148Z,11.50
2023-05-19T01:54:24.363Z,11.73
2023-05-19T01:57:15.698Z,13.33
2023-05-19T02:00:07.893Z,15.40
2023-05-19T02:03:06.212Z,12.70
2023-05-19T02:05:57.198Z,12.47
2023-05-19T02:08:45.505Z,13.23
2023-05-19T02:11:39.021Z,13.63
2023-05-19T02:14:32.820Z,13.33
2023-05-19T02:17:19.159Z,13.90
2023-05-19T02:20:04.636Z,15.13
2023-05-19T02:22:50.592Z,14.23
2023-05-19T02:25:35.603Z,13.30
2023-05-19T02:28:19.501Z,14.00
2023-05-19T02:31:03.509Z,12.30
2023-05-19T02:33:47.522Z,14.47
2023-05-19T02:36:34.850Z,14.03
2023-05-19T02:39:20.349Z,13.23
2023-05-19T02:42:04.275Z,14.23
2023-05-19T02:44:50.933Z,13.17
2023-05-19T02:47:36.997Z,13.53
2023-05-19T02:50:22.665Z,13.37
2023-05-19T02:53:06.651Z,12.90
2023-05-19T02:55:51.984Z,13.33
2023-05-19T02:58:35.947Z,12.23
2023-05-19T03:01:21.409Z,12.30
2023-05-19T03:04:05.747Z,12.20
2023-05-19T03:06:50.313Z,11.33
2023-05-19T03:09:34.177Z,12.20
2023-05-19T03:12:19.506Z,12.07
2023-05-19T03:15:03.494Z,12.70
2023-05-19T03:17:49.180Z,11.80
2023-05-19T03:20:33.619Z,12.37
2023-05-19T03:23:17.936Z,12.80
2023-05-19T03:26:01.863Z,12.23
2023-05-19T03:28:47.177Z,12.43
2023-05-19T03:31:31.370Z,11.90
2023-05-19T03:34:16.744Z,10.43
2023-05-19T03:37:00.656Z,11.27
2023-05-19T03:39:44.822Z,12.33
2023-05-19T03:42:28.796Z,11.70
2023-05-19T03:45:14.371Z,11.70
2023-05-19T03:48:01.124Z,11.40
2023-05-19T03:51:09.153Z,11.87
2023-05-19T03:53:53.177Z,11.00
2023-05-19T03:56:41.182Z,11.50
2023-05-19T03:59:33.223Z,11.40
2023-05-19T04:02:18.579Z,11.17
2023-05-19T04:05:05.949Z,11.77
2023-05-19T04:07:49.909Z,12.20
2023-05-19T04:10:34.845Z,11.73
2023-05-19T04:13:18.792Z,10.87
2023-05-19T04:16:03.049Z,11.20
2023-05-19T04:18:48.313Z,11.47
2023-05-19T04:21:32.232Z,11.33
2023-05-19T04:24:16.543Z,11.30
2023-05-19T04:27:02.801Z,10.70
2023-05-19T04:29:48.439Z,11.00
2023-05-19T04:32:32.662Z,11.40
2023-05-19T04:35:19.590Z,11.43
2023-05-19T04:38:04.824Z,11.73
2023-05-19T04:40:52.138Z,11.00
2023-05-19T04:43:36.599Z,11.45
2023-05-19T04:46:26.172Z,9.50
2023-05-19T04:49:14.102Z,11.10
2023-05-19T04:51:59.659Z,10.38
2023-05-19T04:54:47.651Z,10.32
2023-05-19T04:57:31.914Z,10.80
2023-05-19T05:00:17.262Z,10.07
2023-05-19T05:03:12.435Z,8.73
2023-05-19T05:05:56.971Z,9.73
2023-05-19T05:08:42.797Z,9.57
2023-05-19T05:11:27.477Z,9.95
2023-05-19T05:14:13.563Z,9.00
2023-05-19T05:16:59.370Z,8.70
2023-05-19T05:19:43.820Z,9.60
2023-05-19T05:22:28.406Z,9.40
2023-05-19T05:25:16.467Z,9.30
2023-05-19T05:28:05.339Z,8.77
2023-05-19T05:30:53.356Z,8.57
2023-05-19T05:33:37.592Z,9.43
2023-05-19T05:36:21.831Z,10.45
2023-05-19T05:39:05.919Z,8.43
2023-05-19T05:41:51.495Z,9.88
2023-05-19T05:44:37.579Z,8.77
2023-05-19T05:47:23.433Z,9.02
2023-05-19T05:50:09.877Z,9.40
2023-05-19T05:52:56.643Z,8.88
2023-05-19T05:55:44.712Z,8.10
2023-05-19T05:58:32.586Z,9.60
2023-05-19T06:01:17.034Z,9.13
2023-05-19T06:04:01.927Z,9.05
2023-05-19T06:06:47.107Z,7.30
2023-05-19T06:09:36.220Z,8.48
2023-05-19T06:12:22.994Z,8.77
2023-05-19T06:15:09.697Z,8.07
2023-05-19T06:18:29.108Z,8.60
2023-05-19T06:21:13.587Z,8.77
2023-05-19T06:23:59.060Z,8.88
2023-05-19T06:26:43.632Z,8.15
2023-05-19T06:29:27.638Z,7.05
2023-05-19T06:32:15.359Z,8.43
2023-05-19T06:34:59.821Z,8.02
2023-05-19T06:37:44.161Z,7.40
2023-05-19T06:40:28.517Z,8.48
2023-05-19T06:43:12.871Z,7.47
2023-05-19T06:46:10.691Z,7.90
2023-05-19T06:48:57.490Z,9.57
2023-05-19T06:51:43.981Z,7.45
2023-05-19T06:54:28.659Z,8.02
2023-05-19T06:57:13.866Z,7.95
2023-05-19T06:59:57.886Z,7.80
2023-05-19T07:02:43.945Z,8.77
2023-05-19T07:05:29.382Z,8.48
2023-05-19T07:08:15.575Z,8.13
2023-05-19T07:11:00.615Z,9.27
2023-05-19T07:13:45.680Z,8.38
2023-05-19T07:16:33.741Z,8.13
2023-05-19T07:19:19.872Z,7.93
2023-05-19T07:22:05.735Z,8.18
2023-05-19T07:24:49.773Z,8.43
2023-05-19T07:27:35.994Z,8.10
2023-05-19T07:30:20.012Z,7.90
2023-05-19T07:33:04.135Z,9.07
2023-05-19T07:35:48.245Z,8.40
2023-05-19T07:38:34.836Z,9.52
2023-05-19T07:41:18.795Z,9.02
2023-05-19T07:44:07.707Z,8.80
2023-05-19T07:46:52.039Z,9.60
2023-05-19T07:49:36.119Z,9.75
2023-05-19T07:52:20.009Z,9.38
2023-05-19T07:55:05.779Z,9.60
2023-05-19T07:57:49.882Z,10.43
2023-05-19T08:00:34.245Z,9.27
2023-05-19T08:03:18.899Z,9.73
2023-05-19T08:06:03.321Z,9.52
2023-05-19T08:08:47.590Z,8.90
2023-05-19T08:11:33.305Z,10.05
2023-05-19T08:14:17.709Z,9.25
2023-05-19T08:17:01.973Z,10.70
2023-05-19T08:19:46.559Z,10.95
2023-05-19T08:22:30.434Z,10.18
2023-05-19T08:25:14.376Z,10.45
2023-05-19T08:27:59.650Z,10.35
2023-05-19T08:30:43.591Z,10.45
2023-05-19T08:33:27.745Z,10.68
2023-05-19T08:36:11.857Z,10.70
2023-05-19T08:38:55.975Z,11.57
2023-05-19T08:41:40.006Z,11.80
2023-05-19T08:44:25.355Z,11.48
2023-05-19T08:47:13.902Z,11.15
2023-05-19T08:50:05.074Z,11.05
2023-05-19T08:52:53.687Z,11.85
2023-05-19T08:55:45.286Z,11.10
2023-05-19T08:58:29.253Z,11.60
2023-05-19T09:01:17.037Z,10.50
2023-05-19T09:04:01.916Z,10.38
2023-05-19T09:06:45.981Z,10.38
2023-05-19T09:09:30.646Z,11.63
2023-05-19T09:12:15.585Z,11.30
2023-05-19T09:14:59.732Z,9.70
2023-05-19T09:17:48.245Z,9.35
2023-05-19T09:20:33.073Z,9.63
2023-05-19T09:23:18.413Z,7.60
2023-05-19T09:26:05.134Z,7.65
2023-05-19T09:28:48.975Z,7.65
2023-05-19T09:31:34.325Z,7.32
2023-05-19T09:34:20.063Z,7.07
2023-05-19T09:37:04.004Z,7.55
2023-05-19T09:39:52.158Z,6.95
2023-05-19T09:42:38.985Z,7.78
2023-05-19T09:45:23.180Z,7.60
2023-05-19T09:48:07.916Z,7.55
2023-05-19T09:50:53.423Z,6.35
2023-05-19T09:53:39.136Z,6.38
2023-05-19T09:56:26.243Z,7.68
2023-05-19T09:59:10.335Z,6.65
2023-05-19T10:01:56.643Z,6.47
2023-05-19T10:04:41.513Z,6.20
2023-05-19T10:07:27.393Z,6.10
2023-05-19T10:10:14.299Z,6.68
2023-05-19T10:13:00.328Z,6.93
2023-05-19T10:15:57.438Z,5.40
2023-05-19T10:18:43.791Z,5.00
2023-05-19T10:21:27.838Z,5.85
2023-05-19T10:24:13.421Z,6.07
2023-05-19T10:27:02.641Z,6.15
2023-05-19T10:29:52.123Z,4.75
2023-05-19T10:32:39.017Z,5.70
2023-05-19T10:35:52.159Z,5.32
2023-05-19T10:38:44.366Z,6.65
2023-05-19T10:41:41.312Z,6.90
2023-05-19T10:44:37.347Z,6.53
2023-05-19T10:47:25.401Z,6.18
2023-05-19T10:50:10.129Z,6.22
2023-05-19T10:52:58.209Z,6.38
2023-05-19T10:55:53.427Z,6.45
2023-05-19T10:58:52.415Z,6.65
2023-05-19T11:01:39.123Z,5.85
2023-05-19T11:04:41.222Z,6.28
2023-05-19T11:07:25.345Z,6.00
2023-05-19T11:10:09.942Z,5.97
2023-05-19T11:12:54.155Z,5.68
2023-05-19T11:15:39.551Z,6.05
2023-05-19T11:18:23.483Z,5.13
2023-05-19T11:21:07.502Z,5.40
2023-05-19T11:23:53.774Z,6.25
2023-05-19T11:26:44.536Z,5.82
2023-05-19T11:29:29.114Z,5.80
2023-05-19T11:32:15.253Z,5.38
2023-05-19T11:34:59.379Z,5.57
2023-05-19T11:37:44.132Z,4.80
2023-05-19T11:40:28.238Z,5.35
2023-05-19T11:43:12.154Z,5.30
2023-05-19T11:45:56.649Z,5.75
2023-05-19T11:48:42.269Z,5.35
2023-05-19T11:51:26.625Z,4.50
2023-05-19T11:54:11.801Z,5.53
2023-05-19T11:56:56.009Z,6.28
2023-05-19T11:59:43.956Z,5.90
2023-05-19T12:02:30.050Z,5.28
2023-05-19T12:05:21.568Z,5.57
2023-05-19T12:08:06.517Z,4.85
2023-05-19T12:10:51.208Z,5.43
2023-05-19T12:13:36.385Z,5.40
2023-05-19T12:16:21.787Z,4.93
2023-05-19T12:19:07.283Z,5.00
2023-05-19T12:21:52.961Z,6.30
2023-05-19T12:24:37.712Z,5.35
2023-05-19T12:27:24.179Z,5.25
2023-05-19T12:30:09.870Z,5.80
2023-05-19T12:32:55.350Z,5.82
2023-05-19T12:35:39.444Z,5.85
2023-05-19T12:38:24.766Z,6.28
2023-05-19T12:41:08.650Z,6.03
2023-05-19T12:43:52.560Z,5.50
2023-05-19T12:46:36.459Z,4.70
2023-05-19T12:49:20.481Z,5.50
2023-05-19T12:52:10.477Z,5.00
2023-05-19T12:55:02.116Z,5.13
2023-05-19T12:57:50.658Z,5.40
2023-05-19T13:00:36.120Z,5.70
2023-05-19T13:03:22.241Z,6.40
2023-05-19T13:06:06.343Z,6.32
2023-05-19T13:08:50.157Z,5.22
2023-05-19T13:11:35.347Z,5.78
2023-05-19T13:14:19.728Z,6.32
2023-05-19T13:17:03.820Z,5.88
2023-05-19T13:19:47.815Z,6.32
2023-05-19T13:22:31.934Z,5.43
2023-05-19T13:25:16.172Z,5.15
2023-05-19T13:28:05.034Z,4.85
2023-05-19T13:30:49.755Z,6.60
2023-05-19T13:33:33.790Z,6.10
2023-05-19T13:36:17.744Z,5.05
2023-05-19T13:39:02.051Z,5.50
2023-05-19T13:41:46.822Z,6.35
2023-05-19T13:44:32.356Z,5.38
2023-05-19T13:47:16.480Z,5.28
2023-05-19T13:50:00.395Z,5.15
2023-05-19T13:52:45.089Z,5.95
2023-05-19T13:55:29.599Z,6.15
2023-05-19T13:58:14.930Z,5.43
2023-05-19T14:01:00.398Z,5.50
2023-05-19T14:03:44.628Z,5.38
2023-05-19T14:06:29.020Z,5.68
2023-05-19T14:09:13.345Z,5.28
2023-05-19T14:11:57.427Z,6.00
2023-05-19T14:14:41.409Z,6.35
2023-05-19T14:17:28.599Z,6.13
2023-05-19T14:20:13.381Z,6.18
2023-05-19T14:22:57.389Z,5.85
2023-05-19T14:25:41.624Z,5.38
2023-05-19T14:28:25.576Z,5.55
2023-05-19T14:31:12.786Z,5.38
2023-05-19T14:33:58.274Z,5.63
2023-05-19T14:36:42.164Z,5.72
2023-05-19T14:39:26.084Z,5.90
2023-05-19T14:42:09.890Z,5.85
2023-05-19T14:44:53.930Z,5.53
2023-05-19T14:47:37.764Z,6.10
2023-05-19T14:50:23.121Z,6.55
2023-05-19T14:53:07.177Z,5.75
2023-05-19T14:55:51.118Z,5.95
2023-05-19T14:58:34.853Z,4.85
2023-05-19T15:01:18.849Z,5.57
2023-05-19T15:04:02.847Z,6.22
2023-05-19T15:06:52.247Z,5.03
2023-05-19T15:09:42.530Z,5.50
2023-05-19T15:12:26.613Z,5.68
2023-05-19T15:15:11.396Z,5.78
2023-05-19T15:17:55.496Z,6.22
2023-05-19T15:20:39.537Z,5.03
2023-05-19T15:23:24.983Z,5.53
2023-05-19T15:26:08.836Z,5.47
2023-05-19T15:28:53.620Z,5.85
2023-05-19T15:31:38.454Z,6.22
2023-05-19T15:34:22.700Z,6.22
2023-05-19T15:37:06.917Z,6.38
2023-05-19T15:39:52.242Z,7.85
2023-05-19T15:42:36.153Z,6.80
2023-05-19T15:45:20.275Z,6.35
2023-05-19T15:48:04.309Z,6.80
2023-05-19T15:50:48.931Z,6.10
2023-05-19T15:53:32.786Z,5.95
2023-05-19T15:56:19.475Z,7.07
2023-05-19T15:59:03.538Z,6.03
2023-05-19T16:01:48.787Z,5.68
2023-05-19T16:04:33.638Z,5.60
2023-05-19T16:07:18.659Z,5.78
2023-05-19T16:10:02.501Z,5.57
2023-05-19T16:12:49.985Z,5.95
2023-05-19T16:15:33.925Z,6.28
2023-05-19T16:18:17.890Z,6.00
2023-05-19T16:21:01.846Z,6.63
2023-05-19T16:23:45.819Z,5.93
2023-05-19T16:26:29.710Z,5.90
2023-05-19T16:29:15.134Z,5.18
2023-05-19T16:31:59.177Z,5.82
2023-05-19T16:34:43.008Z,5.85
2023-05-19T16:37:26.944Z,6.18
2023-05-19T16:40:11.395Z,5.40
2023-05-19T16:42:55.220Z,7.22
2023-05-19T16:45:40.514Z,7.45
2023-05-19T16:48:24.357Z,7.50
2023-05-19T16:51:08.178Z,7.28
2023-05-19T16:53:52.027Z,6.15
2023-05-19T16:56:35.942Z,6.47
2023-05-19T16:59:19.877Z,6.63
2023-05-19T17:02:05.593Z,5.72
2023-05-19T17:04:49.626Z,5.90
2023-05-19T17:07:33.540Z,7.03
2023-05-19T17:10:19.240Z,7.22
2023-05-19T17:13:04.357Z,7.65
2023-05-19T17:15:52.532Z,6.72
2023-05-19T17:18:37.930Z,6.00
2023-05-19T17:21:21.746Z,6.18
2023-05-19T17:24:05.807Z,6.30
2023-05-19T17:26:49.787Z,6.97
2023-05-19T17:29:33.711Z,7.20
2023-05-19T17:32:25.837Z,6.47
2023-05-19T17:35:11.428Z,6.75
2023-05-19T17:37:55.282Z,7.07
2023-05-19T17:40:40.724Z,7.40
2023-05-19T17:43:26.226Z,8.38
2023-05-19T17:46:11.818Z,7.13
2023-05-19T17:48:55.800Z,6.43
2023-05-19T17:51:41.703Z,6.75
2023-05-19T17:54:26.401Z,6.38
2023-05-19T17:57:13.503Z,6.07
2023-05-19T18:00:00.150Z,5.90
2023-05-19T18:02:45.123Z,5.88
2023-05-19T18:05:29.549Z,5.60
2023-05-19T18:08:15.243Z,6.40
2023-05-19T18:11:02.496Z,6.53
2023-05-19T18:13:46.319Z,5.60
2023-05-19T18:16:32.613Z,6.28
2023-05-19T18:19:16.549Z,5.97
2023-05-19T18:22:00.410Z,5.68
2023-05-19T18:24:47.212Z,6.38
2023-05-19T18:27:31.536Z,5.90
2023-05-19T18:30:15.395Z,6.68
2023-05-19T18:33:04.168Z,6.43
2023-05-19T18:35:48.192Z,6.28
2023-05-19T18:38:32.049Z,6.47
2023-05-19T18:41:17.536Z,6.30
2023-05-19T18:44:01.418Z,6.80
2023-05-19T18:46:48.068Z,6.68
2023-05-19T18:49:31.991Z,6.43
2023-05-19T18:52:16.016Z,6.50
2023-05-19T18:55:01.285Z,6.55
2023-05-19T18:57:51.516Z,6.53
2023-05-19T19:00:36.696Z,6.68
2023-05-19T19:03:20.534Z,6.35
2023-05-19T19:06:04.699Z,6.80
2023-05-19T19:08:48.545Z,6.35
2023-05-19T19:11:32.342Z,6.85
2023-05-19T19:14:19.482Z,6.90
2023-05-19T19:17:03.452Z,6.80
2023-05-19T19:19:47.455Z,6.47
2023-05-19T19:22:32.623Z,6.68
2023-05-19T19:25:23.730Z,7.00
2023-05-19T19:28:10.671Z,6.90
2023-05-19T19:30:56.304Z,6.40
2023-05-19T19:33:41.545Z,6.68
2023-05-19T19:36:25.731Z,6.35
2023-05-19T19:39:09.675Z,6.80
2023-05-19T19:41:54.831Z,6.35
2023-05-19T19:44:38.688Z,6.03
2023-05-19T19:47:24.424Z,6.13
2023-05-19T19:50:12.022Z,6.32
2023-05-19T19:52:57.796Z,6.85
2023-05-19T19:55:41.656Z,6.25
2023-05-19T19:58:25.725Z,7.63
2023-05-19T20:01:09.629Z,7.18
2023-05-19T20:03:55.721Z,6.20
2023-05-19T20:06:39.925Z,6.82
2023-05-19T20:09:23.661Z,6.65
2023-05-19T20:12:08.380Z,6.13
2023-05-19T20:14:54.556Z,7.63
2023-05-19T20:17:38.495Z,7.00
2023-05-19T20:20:23.870Z,6.10
2023-05-19T20:23:08.161Z,6.22
2023-05-19T20:26:10.327Z,6.88
2023-05-19T20:28:56.009Z,5.65
2023-05-19T20:31:40.019Z,6.03
2023-05-19T20:34:23.992Z,6.03
2023-05-19T20:37:09.269Z,5.90
2023-05-19T20:39:53.206Z,5.95
2023-05-19T20:42:38.610Z,6.20
2023-05-19T20:45:22.436Z,5.43
2023-05-19T20:48:07.216Z,6.22
2023-05-19T20:50:51.844Z,6.60
2023-05-19T20:53:37.131Z,5.95
2023-05-19T20:56:22.155Z,5.80
2023-05-19T20:59:06.280Z,7.28
2023-05-19T21:01:50.200Z,6.30
2023-05-19T21:04:34.418Z,5.13
2023-05-19T21:07:18.338Z,5.82
2023-05-19T21:10:03.733Z,5.60
2023-05-19T21:12:49.473Z,5.78
2023-05-19T21:15:33.280Z,5.75
2023-05-19T21:18:17.153Z,5.25
2023-05-19T21:21:03.422Z,5.20
2023-05-19T21:23:47.361Z,5.60
2023-05-19T21:26:32.538Z,5.57
2023-05-19T21:29:16.471Z,5.32
2023-05-19T21:32:00.404Z,6.07
2023-05-19T21:34:45.196Z,5.43
2023-05-19T21:37:29.136Z,5.50
2023-05-19T21:40:13.961Z,5.20
2023-05-19T21:42:59.396Z,5.88
2023-05-19T21:45:43.348Z,5.90
2023-05-19T21:48:27.196Z,5.60
2023-05-19T21:51:11.111Z,6.60
2023-05-19T21:53:54.994Z,5.68
2023-05-19T21:56:38.839Z,5.72
2023-05-19T21:59:24.870Z,6.13
2023-05-19T22:02:08.941Z,6.50
2023-05-19T22:04:52.906Z,6.05
2023-05-19T22:07:36.774Z,6.30
2023-05-19T22:10:20.865Z,7.47
2023-05-19T22:13:04.684Z,7.60
2023-05-19T22:15:49.911Z,6.65
2023-05-19T22:18:34.048Z,5.95
2023-05-19T22:21:17.852Z,6.45
2023-05-19T22:24:01.793Z,7.20
2023-05-19T22:26:47.021Z,6.43
2023-05-19T22:29:30.982Z,7.43
2023-05-19T22:32:18.372Z,6.50
2023-05-19T22:35:02.360Z,6.70
2023-05-19T22:37:48.537Z,6.30
2023-05-19T22:40:33.937Z,7.85
2023-05-19T22:43:18.030Z,6.65
2023-05-19T22:46:01.886Z,6.95
2023-05-19T22:48:47.126Z,6.80
2023-05-19T22:51:31.376Z,6.97
2023-05-19T22:54:15.204Z,7.03
2023-05-19T22:56:59.121Z,6.15
2023-05-19T22:59:42.980Z,8.13
2023-05-19T23:02:27.482Z,11.65
2023-05-19T23:05:12.979Z,9.40
2023-05-19T23:07:56.855Z,8.50
2023-05-19T23:10:40.704Z,11.75
2023-05-19T23:13:24.553Z,10.23
2023-05-19T23:16:08.653Z,8.18
2023-05-19T23:18:52.535Z,7.57
2023-05-19T23:21:38.002Z,7.53
2023-05-19T23:24:21.875Z,6.75
2023-05-19T23:27:06.646Z,7.53
2023-05-19T23:29:50.664Z,7.35
2023-05-19T23:32:34.531Z,6.63
2023-05-19T23:35:18.849Z,6.45
2023-05-19T23:38:04.147Z,6.82
2023-05-19T23:40:48.103Z,6.88
2023-05-19T23:43:32.540Z,6.43
2023-05-19T23:46:16.568Z,6.57
2023-05-19T23:49:00.681Z,6.78
2023-05-19T23:51:44.757Z,6.70
2023-05-19T23:54:30.417Z,6.80
2023-05-19T23:57:14.289Z,7.40
2023-05-19T23:59:58.195Z,6.97
